Time;durP1;ratioP1;P1;durP2;ratioP2;P2;SDS_P1;SDS_P2;PMS_P1;PMS_P2;Temp;Humidity;BMP_temperature;BMP_pressure;BME280_temperature;BME280_humidity;BME280_pressure;Samples;Min_cycle;Max_cycle;Signal;HPM_P1;HPM_P2
2022/12/23 06:56:10;;;;;;;7.20;5.32;;;;;;;;;;10682830;27;20456;-80
2022/12/23 07:01:11;;;;;;;6.15;4.72;;;;;;;;;;10646405;28;20027;-81
2022/12/23 07:06:12;;;;;;;4.70;3.60;;;;;;;;;;10651231;28;20024;-81
2022/12/23 07:11:13;;;;;;;7.07;3.78;;;;;;;;;;10644291;28;20106;-80
2022/12/23 07:16:14;;;;;;;3.55;2.80;;;;;;;;;;10644756;27;20024;-81
2022/12/23 07:21:15;;;;;;;5.68;4.53;;;;;;;;;;10643487;28;20027;-81
2022/12/23 07:26:16;;;;;;;;;;;;;;;;;;10643608;28;20026;-81
2022/12/23 07:31:17;;;;;;;4.20;2.60;;;;;;;;;;10634633;28;19907;-80
2022/12/23 07:36:18;;;;;;;;;;;;;;;;;;10633334;27;20038;-81
2022/12/23 07:41:19;;;;;;;3.92;3.35;;;;;;;;;;10643341;28;19911;-81
2022/12/23 07:46:20;;;;;;;4.93;4.43;;;;;;;;;;10642861;28;20027;-80
2022/12/23 07:51:21;;;;;;;3.30;3.00;;;;;;;;;;10642573;27;20027;-81
2022/12/23 07:56:22;;;;;;;3.55;2.60;;;;;;;;;;10642552;28;20019;-80
2022/12/23 08:01:24;;;;;;;2.85;2.08;;;;;;;;;;10635647;28;20085;-81
2022/12/23 08:06:25;;;;;;;5.40;2.45;;;;;;;;;;10591139;28;20035;-82
2022/12/23 08:11:26;;;;;;;2.40;2.00;;;;;;;;;;10614282;28;20046;-77
2022/12/23 08:16:28;;;;;;;3.53;3.15;;;;;;;;;;10606046;28;20161;-79
2022/12/23 08:21:29;;;;;;;4.88;4.43;;;;;;;;;;10597021;28;20474;-79
2022/12/23 08:26:30;;;;;;;4.15;3.72;;;;;;;;;;10594538;28;20019;-78
2022/12/23 08:31:31;;;;;;;3.28;2.70;;;;;;;;;;10594573;28;20122;-77
2022/12/23 08:36:34;;;;;;;7.70;6.90;;;;;;;;;;10598807;28;20019;-78
2022/12/23 08:41:36;;;;;;;12.57;10.82;;;;;;;;;;10601935;28;20107;-78
2022/12/23 08:46:37;;;;;;;12.32;10.20;;;;;;;;;;10603619;28;20058;-77
2022/12/23 08:51:39;;;;;;;17.83;13.57;;;;;;;;;;10614704;28;20031;-78
2022/12/23 08:56:40;;;;;;;15.00;12.82;;;;;;;;;;10605782;28;20039;-79
2022/12/23 09:01:41;;;;;;;15.55;12.15;;;;;;;;;;10612038;28;20027;-83
2022/12/23 09:06:44;;;;;;;16.73;14.15;;;;;;;;;;10600468;28;20046;-78
2022/12/23 09:11:45;;;;;;;14.18;11.63;;;;;;;;;;10597715;28;20024;-79
2022/12/23 09:16:49;;;;;;;14.73;12.05;;;;;;;;;;10590774;28;20022;-79
2022/12/23 09:21:50;;;;;;;13.77;10.68;;;;;;;;;;10602739;28;20031;-77
2022/12/23 09:26:51;;;;;;;11.93;10.27;;;;;;;;;;10594407;28;20489;-78
2022/12/23 09:31:52;;;;;;;14.75;12.80;;;;;;;;;;10587301;28;20126;-77
2022/12/23 09:36:53;;;;;;;10.98;8.70;;;;;;;;;;10586814;28;20095;-78
2022/12/23 09:42:14;;;;;;;10.40;7.50;;;;;;;;;;10585701;28;20126;-77
2022/12/23 09:47:20;;;;;;;10.52;7.47;;;;;;;;;;10590021;28;20343;-79
2022/12/23 09:52:41;;;;;;;8.35;5.45;;;;;;;;;;10591469;28;20103;-77
2022/12/23 09:57:42;;;;;;;;;;;;;;;;;;10596831;28;20032;-77
2022/12/23 10:02:46;;;;;;;9.70;6.43;;;;;;;;;;10596819;28;20354;-78
2022/12/23 10:08:00;;;;;;;9.48;7.38;;;;;;;;;;10595492;28;20027;-78
2022/12/23 10:13:02;;;;;;;8.35;5.75;;;;;;;;;;10604574;28;20032;-78
2022/12/23 10:18:06;;;;;;;8.27;5.28;;;;;;;;;;10596450;28;20016;-77
2022/12/23 10:23:16;;;;;;;7.80;5.97;;;;;;;;;;10603346;28;20382;-78
2022/12/23 10:28:17;;;;;;;8.90;5.57;;;;;;;;;;10609075;28;20028;-80
2022/12/23 10:33:32;;;;;;;7.35;5.00;;;;;;;;;;10608331;28;20031;-77
2022/12/23 10:38:42;;;;;;;8.55;5.88;;;;;;;;;;10610854;28;20026;-80
2022/12/23 10:43:56;;;;;;;8.35;5.32;;;;;;;;;;10608482;28;20054;-80
2022/12/23 10:49:00;;;;;;;7.18;5.63;;;;;;;;;;10608055;28;20065;-79
2022/12/23 10:54:04;;;;;;;7.35;5.13;;;;;;;;;;10608015;28;20027;-82
2022/12/23 10:59:11;;;;;;;7.43;5.00;;;;;;;;;;10606822;28;20024;-78
2022/12/23 11:04:14;;;;;;;8.90;5.78;;;;;;;;;;10605433;28;20036;-78
2022/12/23 11:09:38;;;;;;;8.75;5.32;;;;;;;;;;10605156;28;20084;-78
2022/12/23 11:14:40;;;;;;;6.57;4.45;;;;;;;;;;10599923;28;20054;-78
2022/12/23 11:19:41;;;;;;;10.30;5.57;;;;;;;;;;10601305;28;20450;-79
2022/12/23 11:24:43;;;;;;;7.60;5.55;;;;;;;;;;10599326;28;20114;-78
2022/12/23 11:29:51;;;;;;;7.25;6.05;;;;;;;;;;10608789;28;20027;-79
2022/12/23 11:34:52;;;;;;;7.10;4.55;;;;;;;;;;10603629;28;20023;-78
2022/12/23 11:39:53;;;;;;;7.60;5.00;;;;;;;;;;10606571;28;20078;-79
2022/12/23 11:44:56;;;;;;;9.82;5.78;;;;;;;;;;10620929;27;20038;-76
2022/12/23 11:49:59;;;;;;;7.53;4.63;;;;;;;;;;10622420;28;20031;-77
2022/12/23 11:55:01;;;;;;;6.15;4.60;;;;;;;;;;10626663;28;20087;-77
2022/12/23 12:00:03;;;;;;;7.75;5.55;;;;;;;;;;10630123;28;20096;-77
2022/12/23 12:05:08;;;;;;;9.82;7.97;;;;;;;;;;10631455;27;20031;-77
2022/12/23 12:10:15;;;;;;;8.95;4.43;;;;;;;;;;10607048;28;20054;-78
2022/12/23 12:15:31;;;;;;;7.82;5.35;;;;;;;;;;10597182;28;20023;-78
2022/12/23 12:20:38;;;;;;;7.13;5.05;;;;;;;;;;10600654;28;20151;-78
2022/12/23 12:25:46;;;;;;;7.07;4.90;;;;;;;;;;10612014;28;20035;-79
2022/12/23 12:30:53;;;;;;;8.60;5.38;;;;;;;;;;10605848;28;20031;-80
2022/12/23 12:36:08;;;;;;;5.88;4.32;;;;;;;;;;10610338;28;20431;-80
2022/12/23 12:41:17;;;;;;;5.63;4.32;;;;;;;;;;10604017;28;20028;-78
2022/12/23 12:46:31;;;;;;;5.82;4.32;;;;;;;;;;10597041;28;20139;-80
2022/12/23 12:52:10;;;;;;;5.85;4.43;;;;;;;;;;10596273;28;20040;-79
2022/12/23 12:57:15;;;;;;;5.32;3.88;;;;;;;;;;10530431;28;20036;-79
2022/12/23 13:02:25;;;;;;;6.50;3.75;;;;;;;;;;10574015;28;20096;-78
2022/12/23 13:07:38;;;;;;;6.20;4.50;;;;;;;;;;10590569;28;20157;-78
2022/12/23 13:12:57;;;;;;;4.72;3.70;;;;;;;;;;10589041;28;20100;-79
2022/12/23 13:18:14;;;;;;;7.53;4.40;;;;;;;;;;10589239;28;20077;-79
2022/12/23 13:23:22;;;;;;;4.93;4.43;;;;;;;;;;10592056;28;20084;-79
2022/12/23 13:28:29;;;;;;;10.60;8.75;;;;;;;;;;10594079;28;20370;-79
2022/12/23 13:33:47;;;;;;;6.90;3.83;;;;;;;;;;10591767;28;20106;-79
2022/12/23 13:38:53;;;;;;;6.93;3.20;;;;;;;;;;10602089;28;20019;-77
2022/12/23 13:44:13;;;;;;;3.72;3.00;;;;;;;;;;10595882;28;20157;-80
2022/12/23 13:49:27;;;;;;;7.72;4.57;;;;;;;;;;10589970;28;20404;-78
2022/12/23 13:54:43;;;;;;;4.57;3.28;;;;;;;;;;10592212;28;20486;-81
2022/12/23 13:59:56;;;;;;;17.83;13.02;;;;;;;;;;10598674;28;20385;-79
2022/12/23 14:04:58;;;;;;;6.03;4.03;;;;;;;;;;10589249;28;20028;-78
2022/12/23 14:10:09;;;;;;;5.85;3.97;;;;;;;;;;10588018;28;20026;-77
2022/12/23 14:15:10;;;;;;;;;;;;;;;;;;10587363;28;20083;-78
2022/12/23 14:20:11;;;;;;;5.88;3.50;;;;;;;;;;10587040;28;20294;-80
2022/12/23 14:25:32;;;;;;;7.68;4.05;;;;;;;;;;10585248;28;20055;-79
2022/12/23 14:30:35;;;;;;;4.57;2.83;;;;;;;;;;10586737;28;20056;-79
2022/12/23 14:35:39;;;;;;;5.70;2.88;;;;;;;;;;10589425;28;20485;-80
2022/12/23 14:40:45;;;;;;;6.63;2.95;;;;;;;;;;10592142;28;20482;-80
2022/12/23 14:46:07;;;;;;;4.60;3.30;;;;;;;;;;10592940;28;20072;-80
2022/12/23 14:51:08;;;;;;;3.97;2.70;;;;;;;;;;10590933;28;20031;-81
2022/12/23 14:56:11;;;;;;;4.50;3.00;;;;;;;;;;10592569;28;20027;-78
2022/12/23 15:01:15;;;;;;;4.78;2.60;;;;;;;;;;10590257;28;20019;-79
2022/12/23 15:06:25;;;;;;;4.50;3.05;;;;;;;;;;10596684;28;20034;-78
2022/12/23 15:11:28;;;;;;;10.25;7.88;;;;;;;;;;10599632;28;20165;-79
2022/12/23 15:16:31;;;;;;;5.75;4.90;;;;;;;;;;10612213;28;20058;-77
2022/12/23 15:21:34;;;;;;;5.00;3.15;;;;;;;;;;10608069;28;20542;-77
2022/12/23 15:26:37;;;;;;;4.75;2.65;;;;;;;;;;10608645;28;20034;-77
2022/12/23 15:31:41;;;;;;;5.43;2.70;;;;;;;;;;10608130;28;20027;-77
2022/12/23 15:36:42;;;;;;;3.22;2.38;;;;;;;;;;10608393;28;20107;-79
2022/12/23 15:41:44;;;;;;;5.50;2.60;;;;;;;;;;10603041;28;20024;-79
2022/12/23 15:46:45;;;;;;;6.18;3.15;;;;;;;;;;10600904;28;20090;-79
2022/12/23 15:51:54;;;;;;;4.50;3.05;;;;;;;;;;10601829;28;20127;-79
2022/12/23 15:56:57;;;;;;;3.53;2.90;;;;;;;;;;10600605;28;20444;-78
2022/12/23 16:01:58;;;;;;;6.95;3.58;;;;;;;;;;10605040;28;20051;-81
2022/12/23 16:06:59;;;;;;;8.13;3.00;;;;;;;;;;10615607;28;20051;-80
2022/12/23 16:12:03;;;;;;;4.40;3.05;;;;;;;;;;10631931;28;20036;-79
2022/12/23 16:17:06;;;;;;;4.80;2.80;;;;;;;;;;10635533;28;20024;-79
2022/12/23 16:22:18;;;;;;;5.72;3.05;;;;;;;;;;10612218;28;20043;-78
2022/12/23 16:27:25;;;;;;;5.13;2.92;;;;;;;;;;10597361;28;20069;-79
2022/12/23 16:32:26;;;;;;;4.13;3.25;;;;;;;;;;10604634;28;20024;-80
2022/12/23 16:37:27;;;;;;;4.03;3.05;;;;;;;;;;10593064;28;20027;-80
2022/12/23 16:42:28;;;;;;;4.45;3.10;;;;;;;;;;10594692;28;20083;-83
2022/12/23 16:47:31;;;;;;;4.00;3.10;;;;;;;;;;10592060;28;20122;-80
2022/12/23 16:52:32;;;;;;;4.07;3.00;;;;;;;;;;10594736;28;20024;-81
2022/12/23 16:57:33;;;;;;;4.53;2.60;;;;;;;;;;10591918;28;20553;-81
2022/12/23 17:02:34;;;;;;;4.97;3.08;;;;;;;;;;10591325;28;20062;-81
2022/12/23 17:07:35;;;;;;;5.18;3.15;;;;;;;;;;10592271;28;20079;-81
2022/12/23 17:12:36;;;;;;;4.72;3.88;;;;;;;;;;10593544;28;20082;-81
2022/12/23 17:17:37;;;;;;;4.35;2.97;;;;;;;;;;10594890;28;20465;-81
2022/12/23 17:22:39;;;;;;;7.10;3.50;;;;;;;;;;10597817;28;20401;-83
2022/12/23 17:27:40;;;;;;;4.40;3.60;;;;;;;;;;10599608;28;20055;-83
2022/12/23 17:32:41;;;;;;;5.80;4.80;;;;;;;;;;10598961;28;20375;-81
2022/12/23 17:37:42;;;;;;;;;;;;;;;;;;10591144;28;20016;-82
2022/12/23 17:42:43;;;;;;;4.80;4.30;;;;;;;;;;10593323;28;20357;-81
2022/12/23 17:47:44;;;;;;;5.60;5.05;;;;;;;;;;10592139;28;20033;-83
2022/12/23 17:52:45;;;;;;;;;;;;;;;;;;10592724;28;20035;-81
2022/12/23 17:57:47;;;;;;;7.43;5.13;;;;;;;;;;10590664;28;19911;-82
2022/12/23 18:02:48;;;;;;;5.45;4.82;;;;;;;;;;10591539;28;20481;-82
2022/12/23 18:07:50;;;;;;;5.03;4.32;;;;;;;;;;10590064;28;20028;-81
2022/12/23 18:12:59;;;;;;;4.07;3.00;;;;;;;;;;10589611;28;20027;-80
2022/12/23 18:18:01;;;;;;;6.78;3.70;;;;;;;;;;10597921;28;20023;-81
2022/12/23 18:23:02;;;;;;;3.90;2.30;;;;;;;;;;10597115;28;20491;-82
2022/12/23 18:28:03;;;;;;;4.70;2.55;;;;;;;;;;10602122;28;20028;-81
2022/12/23 18:33:05;;;;;;;5.32;3.55;;;;;;;;;;10605116;28;20065;-82
2022/12/23 18:38:06;;;;;;;6.82;3.80;;;;;;;;;;10625985;28;20008;-82
2022/12/23 18:43:15;;;;;;;5.55;3.17;;;;;;;;;;10627809;28;20028;-81
2022/12/23 18:48:16;;;;;;;6.10;3.08;;;;;;;;;;10628981;28;20028;-81
2022/12/23 18:53:17;;;;;;;;;;;;;;;;;;10626980;28;20040;-80
2022/12/23 18:58:18;;;;;;;6.75;3.25;;;;;;;;;;10627282;28;19967;-82
2022/12/23 19:03:19;;;;;;;8.88;3.35;;;;;;;;;;10626350;28;20050;-80
2022/12/23 19:08:20;;;;;;;;;;;;;;;;;;10628101;28;20098;-80
2022/12/23 19:13:21;;;;;;;9.35;4.07;;;;;;;;;;10628652;28;19934;-82
2022/12/23 19:18:22;;;;;;;9.20;3.38;;;;;;;;;;10627773;28;20047;-81
2022/12/23 19:23:25;;;;;;;11.45;3.58;;;;;;;;;;10625556;28;20028;-83
2022/12/23 19:28:26;;;;;;;10.65;3.10;;;;;;;;;;10591525;28;20505;-84
2022/12/23 19:33:27;;;;;;;;;;;;;;;;;;10605901;28;20039;-82
2022/12/23 19:38:28;;;;;;;11.50;4.00;;;;;;;;;;10597051;28;19919;-81
2022/12/23 19:43:29;;;;;;;;;;;;;;;;;;10631843;28;20050;-80
2022/12/23 19:48:30;;;;;;;6.25;2.50;;;;;;;;;;10631846;28;19892;-77
2022/12/23 19:53:31;;;;;;;;;;;;;;;;;;10632698;28;20044;-79
2022/12/23 19:58:33;;;;;;;8.13;3.33;;;;;;;;;;10631442;28;19920;-78
2022/12/23 20:03:34;;;;;;;5.75;2.53;;;;;;;;;;10638484;28;20039;-78
2022/12/23 20:08:35;;;;;;;13.85;4.28;;;;;;;;;;10639534;28;20015;-80
2022/12/23 20:13:36;;;;;;;;;;;;;;;;;;10639652;28;20031;-79
2022/12/23 20:18:37;;;;;;;10.15;3.33;;;;;;;;;;10639205;28;20040;-78
